Decoded Metar for KHBR (HOBART in OK, USA) (IATA:HBR) | Meteo·Mobile Aviation Weather
aviador You're here:

KHBR Decoded Metar

HOBART in OK, USA
Report Time2019-03-20 22:53:00
UTC Time2019-03-20 23:12:23
Flight Rules vfr VFR
Wind330° at 08 kt
W.Decomp.*RWY 30: 7.4 kt HW 3.1 kt RCW
RWY 35: 7.1 kt HW 3.6 kt LCW
RWY 03: 3.1 kt HW 7.4 kt LCW
W.Rank330° ranks 27
Current wind is below 330° avg. (9.2)
Visibility9999 m
Phenomena:N/A
Clouds:N/A
Expected CloudBase > 8,800 ft AGL from Temp-Dew spread
CeilingNone
Temp19°C (ISA +7)
Dew Point-3°C (22% RH)
AAT13.7°C
QNH1022 hPa
Density Alt2,152 ft
Elevation1,552 ft
Report Wrong Elevation
Raw Report
KHBR 202253Z AUTO 33008KT 10SM CLR 19/M03 A3018 RMK AO2 SLP216
T01891033=

Extra information for KHBR:More info

Metar Taf Metar & Taf Last 4 Metars F.Rules Stats Wind Profile Meteogram Temp Stats Airport Information Weather charts Add Link Nearby VenuesMetar ALERT Operation Metar Decoded Social comments

AIRNAV info for KHBR